VYA605 LXGB-GMMX
Flight info
| Callsign | VYA605 |
|---|---|
| Flight time | 0h 59m |
| Altitude | 39000 |
| Route | LINTO UN10 BARIS UB11 SLK UZ801 VALBA UG850 OBOGA |
| Aircraft | CL60/M-SADE3FGHIJ3J4J7P2RWXY/HB1D1 |
Departure
| Time | 2026-04-28 19:38 |
|---|---|
| Airport | Gibraltar Airport (LXGB) |
Arrival
| Time | 2026-04-28 20:38 |
|---|---|
| Airport | Marrakesh Menara Airport (GMMX) |
| Time | Latitude | Longitude | Altitude | Speed | Heading |
|---|---|---|---|---|---|
| 2026-04-28 19:29 | 36.15342 | -5.34403 | 20 ft | 0 kts | 17° |
| 2026-04-28 19:34 | 36.15343 | -5.34403 | 20 ft | 0 kts | 17° |
| 2026-04-28 19:35 | 36.15346 | -5.34397 | 20 ft | 7 kts | 74° |
| 2026-04-28 19:35 | 36.15280 | -5.34400 | 20 ft | 12 kts | 210° |
| 2026-04-28 19:35 | 36.15236 | -5.34521 | 20 ft | 18 kts | 263° |
| 2026-04-28 19:35 | 36.15218 | -5.34662 | 20 ft | 13 kts | 223° |
| 2026-04-28 19:36 | 36.15124 | -5.34708 | 20 ft | 13 kts | 234° |
| 2026-04-28 19:36 | 36.15128 | -5.34830 | 20 ft | 15 kts | 269° |
| 2026-04-28 19:36 | 36.15122 | -5.35005 | 20 ft | 23 kts | 267° |
| 2026-04-28 19:36 | 36.15115 | -5.35216 | 20 ft | 26 kts | 269° |
| 2026-04-28 19:37 | 36.15106 | -5.35453 | 20 ft | 28 kts | 266° |
| 2026-04-28 19:37 | 36.15098 | -5.35623 | 20 ft | 30 kts | 267° |
| 2026-04-28 19:37 | 36.15073 | -5.35879 | 20 ft | 16 kts | 245° |
| 2026-04-28 19:37 | 36.15091 | -5.35919 | 20 ft | 9 kts | 93° |
| 2026-04-28 19:38 | 36.15101 | -5.35599 | 20 ft | 86 kts | 88° |
| 2026-04-28 19:38 | 36.15145 | -5.34488 | 111 ft | 159 kts | 88° |
| 2026-04-28 19:38 | 36.15227 | -5.33131 | 1097 ft | 163 kts | 88° |
| 2026-04-28 19:38 | 36.15298 | -5.31663 | 1797 ft | 196 kts | 88° |
| 2026-04-28 19:39 | 36.15372 | -5.29816 | 2405 ft | 232 kts | 92° |
| 2026-04-28 19:39 | 36.14941 | -5.27881 | 3456 ft | 246 kts | 124° |
| 2026-04-28 19:39 | 36.13646 | -5.26512 | 4647 ft | 255 kts | 156° |
| 2026-04-28 19:39 | 36.11897 | -5.26210 | 5818 ft | 265 kts | 187° |
| 2026-04-28 19:40 | 36.10654 | -5.26744 | 6685 ft | 272 kts | 210° |
| 2026-04-28 19:40 | 36.09329 | -5.28394 | 7890 ft | 280 kts | 237° |
| 2026-04-28 19:40 | 36.08425 | -5.30529 | 9073 ft | 285 kts | 244° |
| 2026-04-28 19:40 | 36.07576 | -5.32756 | 10241 ft | 289 kts | 244° |
| 2026-04-28 19:41 | 36.06722 | -5.34985 | 11400 ft | 292 kts | 244° |
| 2026-04-28 19:41 | 36.05857 | -5.37244 | 12520 ft | 295 kts | 244° |
| 2026-04-28 19:41 | 36.04988 | -5.39509 | 13598 ft | 298 kts | 244° |
| 2026-04-28 19:41 | 36.04093 | -5.41839 | 14617 ft | 302 kts | 244° |
| 2026-04-28 19:42 | 36.03194 | -5.44180 | 15550 ft | 307 kts | 244° |
| 2026-04-28 19:42 | 36.02274 | -5.46574 | 16451 ft | 312 kts | 243° |
| 2026-04-28 19:42 | 36.01339 | -5.49004 | 17338 ft | 317 kts | 244° |
| 2026-04-28 19:42 | 36.00698 | -5.50669 | 17912 ft | 320 kts | 243° |
| 2026-04-28 19:43 | 35.99417 | -5.53993 | 19012 ft | 325 kts | 243° |
| 2026-04-28 19:43 | 35.98442 | -5.56522 | 19801 ft | 329 kts | 243° |
| 2026-04-28 19:43 | 35.97449 | -5.59096 | 20560 ft | 334 kts | 243° |
| 2026-04-28 19:43 | 35.96448 | -5.61687 | 21269 ft | 338 kts | 243° |
| 2026-04-28 19:44 | 35.95433 | -5.64313 | 21997 ft | 341 kts | 243° |
| 2026-04-28 19:44 | 35.94409 | -5.66960 | 22693 ft | 344 kts | 243° |
| 2026-04-28 19:44 | 35.93369 | -5.69645 | 23337 ft | 349 kts | 243° |
| 2026-04-28 19:44 | 35.92315 | -5.72366 | 24003 ft | 353 kts | 243° |
| 2026-04-28 19:45 | 35.91268 | -5.75067 | 24673 ft | 355 kts | 243° |
| 2026-04-28 19:45 | 35.90188 | -5.77849 | 25338 ft | 358 kts | 243° |
| 2026-04-28 19:45 | 35.89131 | -5.80570 | 25926 ft | 361 kts | 243° |
| 2026-04-28 19:45 | 35.88055 | -5.83337 | 26499 ft | 364 kts | 243° |
| 2026-04-28 19:46 | 35.86956 | -5.86163 | 27062 ft | 367 kts | 243° |
| 2026-04-28 19:46 | 35.85704 | -5.88939 | 27583 ft | 368 kts | 231° |
| 2026-04-28 19:46 | 35.83808 | -5.90999 | 28076 ft | 368 kts | 208° |
| 2026-04-28 19:46 | 35.81351 | -5.91949 | 28534 ft | 370 kts | 185° |
| 2026-04-28 19:47 | 35.78771 | -5.91988 | 28914 ft | 376 kts | 180° |
| 2026-04-28 19:47 | 35.76104 | -5.91956 | 29375 ft | 378 kts | 180° |
| 2026-04-28 19:47 | 35.73484 | -5.91933 | 29826 ft | 381 kts | 180° |
| 2026-04-28 19:47 | 35.70810 | -5.91911 | 30306 ft | 382 kts | 180° |
| 2026-04-28 19:48 | 35.68114 | -5.91888 | 30724 ft | 384 kts | 180° |
| 2026-04-28 19:48 | 35.65435 | -5.91865 | 31104 ft | 387 kts | 180° |
| 2026-04-28 19:48 | 35.62720 | -5.91843 | 31489 ft | 389 kts | 180° |
| 2026-04-28 19:48 | 35.59968 | -5.91820 | 31843 ft | 391 kts | 180° |
| 2026-04-28 19:49 | 35.57228 | -5.91798 | 32207 ft | 393 kts | 180° |
| 2026-04-28 19:49 | 35.54451 | -5.91775 | 32557 ft | 395 kts | 180° |
| 2026-04-28 19:49 | 35.51702 | -5.91753 | 32896 ft | 396 kts | 180° |
| 2026-04-28 19:49 | 35.48915 | -5.91731 | 33168 ft | 399 kts | 180° |
| 2026-04-28 19:50 | 35.43322 | -5.91686 | 33777 ft | 401 kts | 180° |
| 2026-04-28 19:50 | 35.40524 | -5.91666 | 34090 ft | 402 kts | 180° |
| 2026-04-28 19:50 | 35.37719 | -5.91718 | 34452 ft | 400 kts | 181° |
| 2026-04-28 19:51 | 35.34919 | -5.91798 | 34785 ft | 398 kts | 181° |
| 2026-04-28 19:51 | 35.32131 | -5.91877 | 35082 ft | 397 kts | 181° |
| 2026-04-28 19:51 | 35.29366 | -5.91954 | 35345 ft | 397 kts | 181° |
| 2026-04-28 19:51 | 35.26611 | -5.92031 | 35567 ft | 397 kts | 181° |
| 2026-04-28 19:52 | 35.23848 | -5.92108 | 35805 ft | 397 kts | 181° |
| 2026-04-28 19:52 | 35.21063 | -5.92186 | 36026 ft | 397 kts | 181° |
| 2026-04-28 19:52 | 35.18286 | -5.92264 | 36279 ft | 396 kts | 181° |
| 2026-04-28 19:52 | 35.15528 | -5.92341 | 36584 ft | 395 kts | 182° |
| 2026-04-28 19:53 | 35.12793 | -5.92417 | 36853 ft | 394 kts | 182° |
| 2026-04-28 19:53 | 35.10035 | -5.92494 | 37069 ft | 395 kts | 182° |
| 2026-04-28 19:53 | 35.07273 | -5.92571 | 37325 ft | 394 kts | 182° |
| 2026-04-28 19:53 | 35.04504 | -5.92647 | 37565 ft | 394 kts | 182° |
| 2026-04-28 19:54 | 35.01755 | -5.92724 | 37815 ft | 393 kts | 182° |
| 2026-04-28 19:54 | 34.99002 | -5.92800 | 38008 ft | 393 kts | 182° |
| 2026-04-28 19:54 | 34.96287 | -5.92898 | 38201 ft | 392 kts | 185° |
| 2026-04-28 19:54 | 34.93579 | -5.93321 | 38368 ft | 390 kts | 192° |
| 2026-04-28 19:55 | 34.90933 | -5.94206 | 38526 ft | 389 kts | 200° |
| 2026-04-28 19:55 | 34.88490 | -5.95494 | 38666 ft | 388 kts | 208° |
| 2026-04-28 19:55 | 34.86158 | -5.97235 | 38758 ft | 389 kts | 216° |
| 2026-04-28 19:55 | 34.84035 | -5.99275 | 38862 ft | 390 kts | 219° |
| 2026-04-28 19:56 | 34.81905 | -6.01392 | 38858 ft | 393 kts | 219° |
| 2026-04-28 19:56 | 34.77600 | -6.05656 | 38871 ft | 399 kts | 219° |
| 2026-04-28 19:57 | 34.73257 | -6.09952 | 38848 ft | 404 kts | 219° |
| 2026-04-28 19:57 | 34.68872 | -6.14285 | 38847 ft | 409 kts | 219° |
| 2026-04-28 19:58 | 34.64401 | -6.18697 | 38856 ft | 413 kts | 219° |
| 2026-04-28 19:58 | 34.59900 | -6.23132 | 38846 ft | 417 kts | 219° |
| 2026-04-28 19:59 | 34.55331 | -6.27628 | 38854 ft | 421 kts | 219° |
| 2026-04-28 19:59 | 34.50614 | -6.31970 | 38843 ft | 424 kts | 213° |
| 2026-04-28 20:00 | 34.45743 | -6.36129 | 38859 ft | 426 kts | 216° |
| 2026-04-28 20:00 | 34.40938 | -6.40334 | 38852 ft | 428 kts | 216° |
| 2026-04-28 20:01 | 34.36073 | -6.44576 | 38844 ft | 430 kts | 216° |
| 2026-04-28 20:01 | 34.31165 | -6.48844 | 38844 ft | 431 kts | 217° |
| 2026-04-28 20:02 | 34.26274 | -6.53084 | 38853 ft | 431 kts | 217° |
| 2026-04-28 20:02 | 34.21355 | -6.57340 | 38855 ft | 432 kts | 217° |
| 2026-04-28 20:03 | 34.16471 | -6.61557 | 38870 ft | 433 kts | 217° |
| 2026-04-28 20:03 | 34.11524 | -6.65820 | 38871 ft | 433 kts | 216° |
| 2026-04-28 20:04 | 34.06609 | -6.70048 | 38880 ft | 434 kts | 216° |
| 2026-04-28 20:04 | 34.01646 | -6.74310 | 38878 ft | 435 kts | 216° |
| 2026-04-28 20:05 | 33.96697 | -6.78553 | 38867 ft | 437 kts | 216° |
| 2026-04-28 20:05 | 33.91724 | -6.82810 | 38870 ft | 438 kts | 216° |
| 2026-04-28 20:06 | 33.86818 | -6.87003 | 38869 ft | 439 kts | 217° |
| 2026-04-28 20:06 | 33.81793 | -6.91292 | 38880 ft | 440 kts | 217° |
| 2026-04-28 20:07 | 33.76775 | -6.95567 | 38872 ft | 441 kts | 217° |
| 2026-04-28 20:07 | 33.71729 | -6.99861 | 38880 ft | 442 kts | 217° |
| 2026-04-28 20:08 | 33.66723 | -7.04114 | 38890 ft | 443 kts | 217° |
| 2026-04-28 20:08 | 33.61641 | -7.08425 | 38888 ft | 444 kts | 217° |
| 2026-04-28 20:09 | 33.56573 | -7.12718 | 38898 ft | 445 kts | 217° |
| 2026-04-28 20:09 | 33.51453 | -7.17048 | 38898 ft | 446 kts | 217° |
| 2026-04-28 20:10 | 33.46387 | -7.21326 | 38922 ft | 446 kts | 217° |
| 2026-04-28 20:10 | 33.41259 | -7.25650 | 38889 ft | 447 kts | 217° |
| 2026-04-28 20:11 | 33.36125 | -7.29974 | 38901 ft | 448 kts | 217° |
| 2026-04-28 20:11 | 33.31016 | -7.34270 | 38897 ft | 449 kts | 217° |
| 2026-04-28 20:12 | 33.25848 | -7.38609 | 38904 ft | 450 kts | 217° |
| 2026-04-28 20:12 | 33.20712 | -7.42915 | 38909 ft | 451 kts | 217° |
| 2026-04-28 20:13 | 33.15389 | -7.47006 | 38902 ft | 454 kts | 210° |
| 2026-04-28 20:13 | 33.09421 | -7.49668 | 38900 ft | 459 kts | 197° |
| 2026-04-28 20:14 | 33.03056 | -7.50560 | 38908 ft | 465 kts | 184° |
| 2026-04-28 20:14 | 32.96528 | -7.50518 | 38914 ft | 466 kts | 183° |
| 2026-04-28 20:15 | 32.90019 | -7.50475 | 38915 ft | 467 kts | 184° |
| 2026-04-28 20:15 | 32.86748 | -7.50455 | 38669 ft | 472 kts | 184° |
| 2026-04-28 20:15 | 32.83456 | -7.50435 | 38100 ft | 471 kts | 183° |
| 2026-04-28 20:15 | 32.80200 | -7.50413 | 37542 ft | 465 kts | 183° |
| 2026-04-28 20:16 | 32.76943 | -7.50391 | 36934 ft | 461 kts | 183° |
| 2026-04-28 20:16 | 32.73759 | -7.50371 | 36332 ft | 459 kts | 183° |
| 2026-04-28 20:16 | 32.70516 | -7.50351 | 35712 ft | 457 kts | 183° |
| 2026-04-28 20:16 | 32.67321 | -7.50332 | 35113 ft | 458 kts | 183° |
| 2026-04-28 20:17 | 32.64109 | -7.50310 | 34483 ft | 458 kts | 184° |
| 2026-04-28 20:17 | 32.60963 | -7.50600 | 33940 ft | 453 kts | 192° |
| 2026-04-28 20:17 | 32.57885 | -7.51517 | 33582 ft | 450 kts | 201° |
| 2026-04-28 20:17 | 32.55023 | -7.53011 | 33184 ft | 450 kts | 211° |
| 2026-04-28 20:18 | 32.52387 | -7.55048 | 32522 ft | 451 kts | 220° |
| 2026-04-28 20:18 | 32.50799 | -7.56697 | 32079 ft | 447 kts | 226° |
| 2026-04-28 20:18 | 32.48251 | -7.60455 | 31255 ft | 437 kts | 240° |
| 2026-04-28 20:18 | 32.46898 | -7.63675 | 30826 ft | 431 kts | 245° |
| 2026-04-28 20:19 | 32.45588 | -7.66827 | 30208 ft | 431 kts | 243° |
| 2026-04-28 20:19 | 32.44202 | -7.69991 | 29641 ft | 427 kts | 242° |
| 2026-04-28 20:19 | 32.42790 | -7.73058 | 29080 ft | 423 kts | 241° |
| 2026-04-28 20:19 | 32.41342 | -7.76055 | 28531 ft | 418 kts | 240° |
| 2026-04-28 20:20 | 32.39848 | -7.79007 | 27976 ft | 412 kts | 239° |
| 2026-04-28 20:20 | 32.38338 | -7.81857 | 27432 ft | 406 kts | 238° |
| 2026-04-28 20:20 | 32.36798 | -7.84643 | 26890 ft | 400 kts | 237° |
| 2026-04-28 20:20 | 32.35241 | -7.87343 | 26365 ft | 395 kts | 236° |
| 2026-04-28 20:21 | 32.33650 | -7.89992 | 25842 ft | 389 kts | 234° |
| 2026-04-28 20:21 | 32.32056 | -7.92545 | 25325 ft | 383 kts | 233° |
| 2026-04-28 20:21 | 32.30434 | -7.95049 | 24819 ft | 378 kts | 233° |
| 2026-04-28 20:21 | 32.28823 | -7.97448 | 24324 ft | 372 kts | 232° |
| 2026-04-28 20:22 | 32.27175 | -7.99820 | 23830 ft | 367 kts | 231° |
| 2026-04-28 20:22 | 32.25518 | -8.02105 | 23345 ft | 362 kts | 230° |
| 2026-04-28 20:22 | 32.23877 | -8.04311 | 22879 ft | 357 kts | 229° |
| 2026-04-28 20:22 | 32.22238 | -8.06512 | 22395 ft | 352 kts | 229° |
| 2026-04-28 20:23 | 32.20640 | -8.08657 | 21936 ft | 346 kts | 229° |
| 2026-04-28 20:23 | 32.19041 | -8.10803 | 21477 ft | 342 kts | 229° |
| 2026-04-28 20:23 | 32.17488 | -8.12886 | 21016 ft | 337 kts | 229° |
| 2026-04-28 20:23 | 32.15934 | -8.14968 | 20577 ft | 332 kts | 229° |
| 2026-04-28 20:24 | 32.14411 | -8.17007 | 20140 ft | 327 kts | 229° |
| 2026-04-28 20:24 | 32.12777 | -8.18815 | 19709 ft | 323 kts | 215° |
| 2026-04-28 20:24 | 32.10746 | -8.19924 | 19255 ft | 321 kts | 196° |
| 2026-04-28 20:24 | 32.08543 | -8.20371 | 18824 ft | 318 kts | 189° |
| 2026-04-28 20:25 | 32.06354 | -8.20729 | 18402 ft | 315 kts | 190° |
| 2026-04-28 20:25 | 32.04199 | -8.21090 | 17972 ft | 311 kts | 190° |
| 2026-04-28 20:25 | 32.02058 | -8.21447 | 17567 ft | 308 kts | 189° |
| 2026-04-28 20:25 | 31.99944 | -8.21800 | 17172 ft | 304 kts | 189° |
| 2026-04-28 20:26 | 31.97837 | -8.22152 | 16765 ft | 301 kts | 189° |
| 2026-04-28 20:26 | 31.95791 | -8.22538 | 16368 ft | 291 kts | 196° |
| 2026-04-28 20:26 | 31.93969 | -8.23470 | 16034 ft | 281 kts | 215° |
| 2026-04-28 20:26 | 31.92545 | -8.25008 | 15469 ft | 281 kts | 231° |
| 2026-04-28 20:27 | 31.91507 | -8.26928 | 15174 ft | 273 kts | 240° |
| 2026-04-28 20:27 | 31.90627 | -8.28903 | 14784 ft | 267 kts | 239° |
| 2026-04-28 20:27 | 31.89723 | -8.30738 | 14496 ft | 261 kts | 236° |
| 2026-04-28 20:27 | 31.88733 | -8.32517 | 14087 ft | 261 kts | 233° |
| 2026-04-28 20:28 | 31.87648 | -8.34252 | 13789 ft | 263 kts | 230° |
| 2026-04-28 20:28 | 31.86490 | -8.35909 | 13424 ft | 263 kts | 227° |
| 2026-04-28 20:28 | 31.85244 | -8.37504 | 13140 ft | 261 kts | 224° |
| 2026-04-28 20:28 | 31.83915 | -8.38999 | 12680 ft | 266 kts | 217° |
| 2026-04-28 20:29 | 31.82312 | -8.40059 | 12390 ft | 261 kts | 203° |
| 2026-04-28 20:29 | 31.80640 | -8.40911 | 12047 ft | 260 kts | 203° |
| 2026-04-28 20:29 | 31.78971 | -8.41770 | 11653 ft | 261 kts | 203° |
| 2026-04-28 20:29 | 31.77307 | -8.42627 | 11342 ft | 260 kts | 203° |
| 2026-04-28 20:30 | 31.75644 | -8.43483 | 10971 ft | 260 kts | 204° |
| 2026-04-28 20:30 | 31.73975 | -8.44342 | 10654 ft | 258 kts | 204° |
| 2026-04-28 20:30 | 31.72327 | -8.45190 | 10299 ft | 258 kts | 204° |
| 2026-04-28 20:30 | 31.70653 | -8.46029 | 9943 ft | 259 kts | 199° |
| 2026-04-28 20:31 | 31.68880 | -8.46340 | 9509 ft | 257 kts | 176° |
| 2026-04-28 20:31 | 31.67157 | -8.45801 | 9077 ft | 254 kts | 153° |
| 2026-04-28 20:31 | 31.65769 | -8.44521 | 8598 ft | 254 kts | 129° |
| 2026-04-28 20:31 | 31.64945 | -8.42724 | 8132 ft | 254 kts | 105° |
| 2026-04-28 20:32 | 31.64647 | -8.40687 | 7691 ft | 253 kts | 97° |
| 2026-04-28 20:32 | 31.64411 | -8.38619 | 7237 ft | 253 kts | 98° |
| 2026-04-28 20:32 | 31.64172 | -8.36586 | 6801 ft | 251 kts | 97° |
| 2026-04-28 20:32 | 31.63934 | -8.34563 | 6325 ft | 251 kts | 97° |
| 2026-04-28 20:33 | 31.63696 | -8.32533 | 5877 ft | 250 kts | 97° |
| 2026-04-28 20:33 | 31.63458 | -8.30508 | 5465 ft | 248 kts | 97° |
| 2026-04-28 20:33 | 31.63221 | -8.28498 | 5037 ft | 246 kts | 97° |
| 2026-04-28 20:33 | 31.62979 | -8.26533 | 4759 ft | 242 kts | 101° |
| 2026-04-28 20:34 | 31.62474 | -8.24629 | 4384 ft | 247 kts | 105° |
| 2026-04-28 20:34 | 31.62284 | -8.22620 | 3983 ft | 248 kts | 90° |
| 2026-04-28 20:34 | 31.62162 | -8.20597 | 3611 ft | 248 kts | 95° |
| 2026-04-28 20:34 | 31.61994 | -8.18656 | 3248 ft | 227 kts | 95° |
| 2026-04-28 20:35 | 31.61849 | -8.16940 | 3182 ft | 195 kts | 94° |
| 2026-04-28 20:35 | 31.61723 | -8.15500 | 3195 ft | 160 kts | 94° |
| 2026-04-28 20:35 | 31.61613 | -8.14212 | 2971 ft | 154 kts | 95° |
| 2026-04-28 20:35 | 31.61507 | -8.12981 | 2784 ft | 148 kts | 95° |
| 2026-04-28 20:36 | 31.61404 | -8.11789 | 2600 ft | 147 kts | 96° |
| 2026-04-28 20:36 | 31.61300 | -8.10600 | 2416 ft | 145 kts | 93° |
| 2026-04-28 20:36 | 31.61203 | -8.09420 | 2214 ft | 144 kts | 94° |
| 2026-04-28 20:36 | 31.61112 | -8.08251 | 2027 ft | 145 kts | 96° |
| 2026-04-28 20:37 | 31.60988 | -8.07076 | 1829 ft | 143 kts | 97° |
| 2026-04-28 20:37 | 31.60891 | -8.05940 | 1678 ft | 138 kts | 92° |
| 2026-04-28 20:37 | 31.60795 | -8.04834 | 1526 ft | 127 kts | 96° |
| 2026-04-28 20:37 | 31.60718 | -8.03929 | 1536 ft | 88 kts | 96° |
| 2026-04-28 20:38 | 31.60670 | -8.03418 | 1541 ft | 39 kts | 97° |
| 2026-04-28 20:38 | 31.60618 | -8.03227 | 1543 ft | 25 kts | 123° |
| 2026-04-28 20:38 | 31.60511 | -8.03060 | 1545 ft | 25 kts | 122° |
| 2026-04-28 20:38 | 31.60482 | -8.03006 | 1547 ft | 7 kts | 122° |
| 2026-04-28 20:39 | 31.60458 | -8.02940 | 1549 ft | 12 kts | 98° |
| 2026-04-28 20:39 | 31.60428 | -8.02849 | 1553 ft | 12 kts | 163° |
| 2026-04-28 20:39 | 31.60354 | -8.02851 | 1557 ft | 5 kts | 186° |
| 2026-04-28 20:39 | 31.60335 | -8.02853 | 1557 ft | 0 kts | 185° |